sensor_id;sensor_type;location;lat;lon;timestamp;temperature;humidity
20526;DHT22;10421;49.142;9.232;2023-04-24T00:02:08;14.60;97.20
20526;DHT22;10421;49.142;9.232;2023-04-24T00:04:36;14.50;97.20
20526;DHT22;10421;49.142;9.232;2023-04-24T00:07:07;14.40;97.20
20526;DHT22;10421;49.142;9.232;2023-04-24T00:09:34;14.40;97.40
20526;DHT22;10421;49.142;9.232;2023-04-24T00:12:00;14.40;97.50
20526;DHT22;10421;49.142;9.232;2023-04-24T00:14:29;14.40;97.50
20526;DHT22;10421;49.142;9.232;2023-04-24T00:16:55;14.40;97.60
20526;DHT22;10421;49.142;9.232;2023-04-24T00:19:22;14.40;97.60
20526;DHT22;10421;49.142;9.232;2023-04-24T00:21:49;14.40;97.60
20526;DHT22;10421;49.142;9.232;2023-04-24T00:24:17;14.40;97.60
20526;DHT22;10421;49.142;9.232;2023-04-24T00:26:44;14.40;98.00
20526;DHT22;10421;49.142;9.232;2023-04-24T00:29:11;14.40;97.70
20526;DHT22;10421;49.142;9.232;2023-04-24T00:31:38;14.40;97.50
20526;DHT22;10421;49.142;9.232;2023-04-24T00:34:04;14.40;97.60
20526;DHT22;10421;49.142;9.232;2023-04-24T00:36:31;14.50;97.50
20526;DHT22;10421;49.142;9.232;2023-04-24T00:38:58;14.50;97.60
20526;DHT22;10421;49.142;9.232;2023-04-24T00:41:26;14.50;97.40
20526;DHT22;10421;49.142;9.232;2023-04-24T00:43:53;14.50;97.90
20526;DHT22;10421;49.142;9.232;2023-04-24T00:46:20;14.40;97.60
20526;DHT22;10421;49.142;9.232;2023-04-24T00:48:47;14.40;97.50
20526;DHT22;10421;49.142;9.232;2023-04-24T00:51:14;14.40;97.50
20526;DHT22;10421;49.142;9.232;2023-04-24T00:53:41;14.40;97.50
20526;DHT22;10421;49.142;9.232;2023-04-24T00:56:08;14.40;97.50
20526;DHT22;10421;49.142;9.232;2023-04-24T00:58:36;14.30;97.60
20526;DHT22;10421;49.142;9.232;2023-04-24T01:01:03;14.30;97.70
20526;DHT22;10421;49.142;9.232;2023-04-24T01:03:33;14.30;97.90
20526;DHT22;10421;49.142;9.232;2023-04-24T01:06:00;14.30;97.90
20526;DHT22;10421;49.142;9.232;2023-04-24T01:08:28;14.40;97.70
20526;DHT22;10421;49.142;9.232;2023-04-24T01:10:57;14.40;97.70
20526;DHT22;10421;49.142;9.232;2023-04-24T01:13:24;14.50;97.80
20526;DHT22;10421;49.142;9.232;2023-04-24T01:15:52;14.50;97.60
20526;DHT22;10421;49.142;9.232;2023-04-24T01:18:18;14.50;97.90
20526;DHT22;10421;49.142;9.232;2023-04-24T01:20:46;14.60;97.60
20526;DHT22;10421;49.142;9.232;2023-04-24T01:23:15;14.70;97.50
20526;DHT22;10421;49.142;9.232;2023-04-24T01:25:43;14.70;97.40
20526;DHT22;10421;49.142;9.232;2023-04-24T01:28:10;14.80;97.30
20526;DHT22;10421;49.142;9.232;2023-04-24T01:30:39;14.80;97.20
20526;DHT22;10421;49.142;9.232;2023-04-24T01:33:06;14.80;97.20
20526;DHT22;10421;49.142;9.232;2023-04-24T01:35:33;14.70;97.30
20526;DHT22;10421;49.142;9.232;2023-04-24T01:38:01;14.70;97.40
20526;DHT22;10421;49.142;9.232;2023-04-24T01:40:29;14.70;97.40
20526;DHT22;10421;49.142;9.232;2023-04-24T01:42:57;14.70;97.40
20526;DHT22;10421;49.142;9.232;2023-04-24T01:45:24;14.70;97.40
20526;DHT22;10421;49.142;9.232;2023-04-24T01:47:51;14.70;97.50
20526;DHT22;10421;49.142;9.232;2023-04-24T01:50:18;14.70;97.40
20526;DHT22;10421;49.142;9.232;2023-04-24T01:52:45;14.70;97.50
20526;DHT22;10421;49.142;9.232;2023-04-24T01:55:12;14.60;97.50
20526;DHT22;10421;49.142;9.232;2023-04-24T01:57:40;14.60;97.60
20526;DHT22;10421;49.142;9.232;2023-04-24T02:00:07;14.50;97.60
20526;DHT22;10421;49.142;9.232;2023-04-24T02:02:36;14.50;97.60
20526;DHT22;10421;49.142;9.232;2023-04-24T02:05:06;14.50;97.50
20526;DHT22;10421;49.142;9.232;2023-04-24T02:07:32;14.50;97.50
20526;DHT22;10421;49.142;9.232;2023-04-24T02:09:59;14.50;97.70
20526;DHT22;10421;49.142;9.232;2023-04-24T02:12:26;14.40;97.60
20526;DHT22;10421;49.142;9.232;2023-04-24T02:14:54;14.50;97.60
20526;DHT22;10421;49.142;9.232;2023-04-24T02:17:21;14.60;97.50
20526;DHT22;10421;49.142;9.232;2023-04-24T02:19:48;14.60;97.30
20526;DHT22;10421;49.142;9.232;2023-04-24T02:22:14;14.70;97.30
20526;DHT22;10421;49.142;9.232;2023-04-24T02:24:41;14.70;97.20
20526;DHT22;10421;49.142;9.232;2023-04-24T02:27:08;14.60;97.20
20526;DHT22;10421;49.142;9.232;2023-04-24T02:29:35;14.60;97.20
20526;DHT22;10421;49.142;9.232;2023-04-24T02:32:03;14.50;97.30
20526;DHT22;10421;49.142;9.232;2023-04-24T02:34:29;14.50;97.40
20526;DHT22;10421;49.142;9.232;2023-04-24T02:36:56;14.40;97.40
20526;DHT22;10421;49.142;9.232;2023-04-24T02:39:23;14.40;97.50
20526;DHT22;10421;49.142;9.232;2023-04-24T02:41:50;14.40;97.50
20526;DHT22;10421;49.142;9.232;2023-04-24T02:44:17;14.30;97.50
20526;DHT22;10421;49.142;9.232;2023-04-24T02:46:43;14.30;97.50
20526;DHT22;10421;49.142;9.232;2023-04-24T02:49:11;14.40;97.50
20526;DHT22;10421;49.142;9.232;2023-04-24T02:51:38;14.40;97.60
20526;DHT22;10421;49.142;9.232;2023-04-24T02:54:06;14.40;97.50
20526;DHT22;10421;49.142;9.232;2023-04-24T02:56:33;14.50;97.70
20526;DHT22;10421;49.142;9.232;2023-04-24T02:59:00;14.50;97.30
20526;DHT22;10421;49.142;9.232;2023-04-24T03:01:27;14.50;97.30
20526;DHT22;10421;49.142;9.232;2023-04-24T03:03:53;14.50;97.30
20526;DHT22;10421;49.142;9.232;2023-04-24T03:06:22;14.50;97.40
20526;DHT22;10421;49.142;9.232;2023-04-24T03:08:48;14.50;97.30
20526;DHT22;10421;49.142;9.232;2023-04-24T03:11:15;14.50;97.40
20526;DHT22;10421;49.142;9.232;2023-04-24T03:13:42;14.50;97.30
20526;DHT22;10421;49.142;9.232;2023-04-24T03:16:08;14.50;97.40
20526;DHT22;10421;49.142;9.232;2023-04-24T03:18:35;14.40;97.50
20526;DHT22;10421;49.142;9.232;2023-04-24T03:21:02;14.30;97.70
20526;DHT22;10421;49.142;9.232;2023-04-24T03:23:30;14.30;97.60
20526;DHT22;10421;49.142;9.232;2023-04-24T03:25:57;14.40;97.70
20526;DHT22;10421;49.142;9.232;2023-04-24T03:28:24;14.40;97.70
20526;DHT22;10421;49.142;9.232;2023-04-24T03:30:50;14.40;97.80
20526;DHT22;10421;49.142;9.232;2023-04-24T03:33:17;14.30;97.90
20526;DHT22;10421;49.142;9.232;2023-04-24T03:35:44;14.20;98.10
20526;DHT22;10421;49.142;9.232;2023-04-24T03:38:10;14.20;98.40
20526;DHT22;10421;49.142;9.232;2023-04-24T03:40:39;14.10;98.50
20526;DHT22;10421;49.142;9.232;2023-04-24T03:43:05;14.10;98.60
20526;DHT22;10421;49.142;9.232;2023-04-24T03:45:32;14.10;98.70
20526;DHT22;10421;49.142;9.232;2023-04-24T03:47:59;14.00;98.90
20526;DHT22;10421;49.142;9.232;2023-04-24T03:50:25;14.10;99.00
20526;DHT22;10421;49.142;9.232;2023-04-24T03:52:54;14.10;99.00
20526;DHT22;10421;49.142;9.232;2023-04-24T03:55:21;14.00;99.10
20526;DHT22;10421;49.142;9.232;2023-04-24T03:57:49;14.00;99.40
20526;DHT22;10421;49.142;9.232;2023-04-24T04:00:16;14.00;99.40
20526;DHT22;10421;49.142;9.232;2023-04-24T04:02:44;14.00;99.50
20526;DHT22;10421;49.142;9.232;2023-04-24T04:05:10;14.00;99.50
20526;DHT22;10421;49.142;9.232;2023-04-24T04:07:37;14.00;99.60
20526;DHT22;10421;49.142;9.232;2023-04-24T04:10:05;13.90;99.50
20526;DHT22;10421;49.142;9.232;2023-04-24T04:12:32;13.90;99.80
20526;DHT22;10421;49.142;9.232;2023-04-24T04:15:00;14.00;99.90
20526;DHT22;10421;49.142;9.232;2023-04-24T04:17:27;14.00;99.90
20526;DHT22;10421;49.142;9.232;2023-04-24T04:19:54;13.90;99.80
20526;DHT22;10421;49.142;9.232;2023-04-24T04:22:21;13.90;99.90
20526;DHT22;10421;49.142;9.232;2023-04-24T04:24:48;13.70;99.90
20526;DHT22;10421;49.142;9.232;2023-04-24T04:27:16;13.70;99.90
20526;DHT22;10421;49.142;9.232;2023-04-24T04:29:43;13.60;99.90
20526;DHT22;10421;49.142;9.232;2023-04-24T04:32:11;13.60;99.90
20526;DHT22;10421;49.142;9.232;2023-04-24T04:34:38;13.60;99.90
20526;DHT22;10421;49.142;9.232;2023-04-24T04:37:05;13.50;99.90
20526;DHT22;10421;49.142;9.232;2023-04-24T04:39:31;13.50;99.90
20526;DHT22;10421;49.142;9.232;2023-04-24T04:41:58;13.50;99.90
20526;DHT22;10421;49.142;9.232;2023-04-24T04:44:25;13.40;99.90
20526;DHT22;10421;49.142;9.232;2023-04-24T04:46:54;13.40;99.90
20526;DHT22;10421;49.142;9.232;2023-04-24T04:49:23;13.40;99.90
20526;DHT22;10421;49.142;9.232;2023-04-24T04:51:50;13.40;99.90
20526;DHT22;10421;49.142;9.232;2023-04-24T04:54:17;13.50;99.90
20526;DHT22;10421;49.142;9.232;2023-04-24T04:56:44;13.60;99.90
20526;DHT22;10421;49.142;9.232;2023-04-24T04:59:10;13.60;99.90
20526;DHT22;10421;49.142;9.232;2023-04-24T05:01:38;13.60;99.90
20526;DHT22;10421;49.142;9.232;2023-04-24T05:04:04;13.70;99.90
20526;DHT22;10421;49.142;9.232;2023-04-24T05:06:33;13.70;99.90
20526;DHT22;10421;49.142;9.232;2023-04-24T05:08:59;13.70;99.90
20526;DHT22;10421;49.142;9.232;2023-04-24T05:11:26;13.70;99.90
20526;DHT22;10421;49.142;9.232;2023-04-24T05:13:53;13.80;99.90
20526;DHT22;10421;49.142;9.232;2023-04-24T05:16:19;13.90;99.90
20526;DHT22;10421;49.142;9.232;2023-04-24T05:18:46;13.90;99.90
20526;DHT22;10421;49.142;9.232;2023-04-24T05:21:13;13.90;99.90
20526;DHT22;10421;49.142;9.232;2023-04-24T05:23:41;13.90;99.90
20526;DHT22;10421;49.142;9.232;2023-04-24T05:26:08;13.90;99.90
20526;DHT22;10421;49.142;9.232;2023-04-24T05:28:35;13.80;99.90
20526;DHT22;10421;49.142;9.232;2023-04-24T05:31:02;13.90;99.90
20526;DHT22;10421;49.142;9.232;2023-04-24T05:33:29;13.90;99.90
20526;DHT22;10421;49.142;9.232;2023-04-24T05:35:56;13.70;99.90
20526;DHT22;10421;49.142;9.232;2023-04-24T05:38:23;13.60;99.90
20526;DHT22;10421;49.142;9.232;2023-04-24T05:40:51;13.60;99.90
20526;DHT22;10421;49.142;9.232;2023-04-24T05:43:18;13.50;99.90
20526;DHT22;10421;49.142;9.232;2023-04-24T05:45:45;13.40;99.90
20526;DHT22;10421;49.142;9.232;2023-04-24T05:48:11;13.30;99.90
20526;DHT22;10421;49.142;9.232;2023-04-24T05:50:38;13.20;99.90
20526;DHT22;10421;49.142;9.232;2023-04-24T05:53:05;13.30;99.90
20526;DHT22;10421;49.142;9.232;2023-04-24T05:55:33;13.20;99.90
20526;DHT22;10421;49.142;9.232;2023-04-24T05:58:01;13.20;99.90
20526;DHT22;10421;49.142;9.232;2023-04-24T06:00:28;13.20;99.90
20526;DHT22;10421;49.142;9.232;2023-04-24T06:02:54;13.20;99.90
20526;DHT22;10421;49.142;9.232;2023-04-24T06:05:21;13.20;99.90
20526;DHT22;10421;49.142;9.232;2023-04-24T06:07:48;13.10;99.90
20526;DHT22;10421;49.142;9.232;2023-04-24T06:10:15;13.00;99.70
20526;DHT22;10421;49.142;9.232;2023-04-24T06:12:42;13.00;99.80
20526;DHT22;10421;49.142;9.232;2023-04-24T06:15:10;13.10;99.90
20526;DHT22;10421;49.142;9.232;2023-04-24T06:17:38;13.10;99.90
20526;DHT22;10421;49.142;9.232;2023-04-24T06:20:05;13.10;99.90
20526;DHT22;10421;49.142;9.232;2023-04-24T06:22:33;13.10;99.50
20526;DHT22;10421;49.142;9.232;2023-04-24T06:25:00;13.00;99.80
20526;DHT22;10421;49.142;9.232;2023-04-24T06:27:27;13.10;99.70
20526;DHT22;10421;49.142;9.232;2023-04-24T06:29:54;13.10;99.30
20526;DHT22;10421;49.142;9.232;2023-04-24T06:32:23;13.10;99.20
20526;DHT22;10421;49.142;9.232;2023-04-24T06:34:51;13.10;99.10
20526;DHT22;10421;49.142;9.232;2023-04-24T06:37:18;13.10;99.30
20526;DHT22;10421;49.142;9.232;2023-04-24T06:39:46;13.10;98.90
20526;DHT22;10421;49.142;9.232;2023-04-24T06:42:12;13.10;98.60
20526;DHT22;10421;49.142;9.232;2023-04-24T06:44:39;13.10;98.60
20526;DHT22;10421;49.142;9.232;2023-04-24T06:47:07;13.10;98.90
20526;DHT22;10421;49.142;9.232;2023-04-24T06:49:35;13.20;98.90
20526;DHT22;10421;49.142;9.232;2023-04-24T06:52:02;13.40;99.10
20526;DHT22;10421;49.142;9.232;2023-04-24T06:54:29;13.50;98.60
20526;DHT22;10421;49.142;9.232;2023-04-24T06:56:56;13.60;98.50
20526;DHT22;10421;49.142;9.232;2023-04-24T06:59:22;13.60;98.20
20526;DHT22;10421;49.142;9.232;2023-04-24T07:01:49;13.70;98.10
20526;DHT22;10421;49.142;9.232;2023-04-24T07:04:17;13.70;97.80
20526;DHT22;10421;49.142;9.232;2023-04-24T07:06:45;13.70;98.30
20526;DHT22;10421;49.142;9.232;2023-04-24T07:09:12;13.70;98.20
20526;DHT22;10421;49.142;9.232;2023-04-24T07:11:41;13.80;98.00
20526;DHT22;10421;49.142;9.232;2023-04-24T07:14:08;13.80;97.70
20526;DHT22;10421;49.142;9.232;2023-04-24T07:16:35;13.80;96.70
20526;DHT22;10421;49.142;9.232;2023-04-24T07:19:02;13.80;95.90
20526;DHT22;10421;49.142;9.232;2023-04-24T07:21:28;13.80;95.30
20526;DHT22;10421;49.142;9.232;2023-04-24T07:23:57;13.50;95.10
20526;DHT22;10421;49.142;9.232;2023-04-24T07:26:25;13.60;95.10
20526;DHT22;10421;49.142;9.232;2023-04-24T07:28:52;13.60;94.90
20526;DHT22;10421;49.142;9.232;2023-04-24T07:31:18;13.60;94.50
20526;DHT22;10421;49.142;9.232;2023-04-24T07:33:46;13.70;93.70
20526;DHT22;10421;49.142;9.232;2023-04-24T07:36:13;13.80;93.20
20526;DHT22;10421;49.142;9.232;2023-04-24T07:38:44;13.80;92.90
20526;DHT22;10421;49.142;9.232;2023-04-24T07:41:12;13.90;93.50
20526;DHT22;10421;49.142;9.232;2023-04-24T07:43:40;13.90;93.10
20526;DHT22;10421;49.142;9.232;2023-04-24T07:46:07;14.00;92.80
20526;DHT22;10421;49.142;9.232;2023-04-24T07:48:36;14.10;93.20
20526;DHT22;10421;49.142;9.232;2023-04-24T07:51:03;14.20;92.80
20526;DHT22;10421;49.142;9.232;2023-04-24T07:53:30;14.20;91.90
20526;DHT22;10421;49.142;9.232;2023-04-24T07:55:57;14.20;91.60
20526;DHT22;10421;49.142;9.232;2023-04-24T07:58:25;14.30;91.00
20526;DHT22;10421;49.142;9.232;2023-04-24T08:00:52;14.30;90.40
20526;DHT22;10421;49.142;9.232;2023-04-24T08:03:18;14.40;90.40
20526;DHT22;10421;49.142;9.232;2023-04-24T08:05:45;14.30;90.20
20526;DHT22;10421;49.142;9.232;2023-04-24T08:08:13;14.30;90.00
20526;DHT22;10421;49.142;9.232;2023-04-24T08:10:40;14.20;90.30
20526;DHT22;10421;49.142;9.232;2023-04-24T08:13:06;14.20;90.20
20526;DHT22;10421;49.142;9.232;2023-04-24T08:15:34;14.10;90.60
20526;DHT22;10421;49.142;9.232;2023-04-24T08:18:01;14.20;90.50
20526;DHT22;10421;49.142;9.232;2023-04-24T08:20:28;14.20;90.40
20526;DHT22;10421;49.142;9.232;2023-04-24T08:22:55;14.10;90.20
20526;DHT22;10421;49.142;9.232;2023-04-24T08:25:22;14.10;89.80
20526;DHT22;10421;49.142;9.232;2023-04-24T08:27:50;14.10;89.80
20526;DHT22;10421;49.142;9.232;2023-04-24T08:30:17;14.10;89.90
20526;DHT22;10421;49.142;9.232;2023-04-24T08:32:45;14.10;89.30
20526;DHT22;10421;49.142;9.232;2023-04-24T08:35:11;14.10;89.20
20526;DHT22;10421;49.142;9.232;2023-04-24T08:37:38;14.10;89.80
20526;DHT22;10421;49.142;9.232;2023-04-24T08:40:09;14.00;90.20
20526;DHT22;10421;49.142;9.232;2023-04-24T08:42:38;14.10;89.70
20526;DHT22;10421;49.142;9.232;2023-04-24T08:45:06;14.10;89.80
20526;DHT22;10421;49.142;9.232;2023-04-24T08:47:35;14.10;89.50
20526;DHT22;10421;49.142;9.232;2023-04-24T08:50:04;14.10;89.30
20526;DHT22;10421;49.142;9.232;2023-04-24T08:52:32;14.00;89.10
20526;DHT22;10421;49.142;9.232;2023-04-24T08:55:00;14.00;90.30
20526;DHT22;10421;49.142;9.232;2023-04-24T08:57:27;13.90;91.80
20526;DHT22;10421;49.142;9.232;2023-04-24T08:59:55;14.00;92.80
20526;DHT22;10421;49.142;9.232;2023-04-24T09:02:23;13.90;92.80
20526;DHT22;10421;49.142;9.232;2023-04-24T09:04:50;13.80;92.90
20526;DHT22;10421;49.142;9.232;2023-04-24T09:07:19;13.80;92.80
20526;DHT22;10421;49.142;9.232;2023-04-24T09:09:46;13.80;93.30
20526;DHT22;10421;49.142;9.232;2023-04-24T09:12:14;13.80;92.90
20526;DHT22;10421;49.142;9.232;2023-04-24T09:14:41;13.80;92.90
20526;DHT22;10421;49.142;9.232;2023-04-24T09:17:10;13.90;92.40
20526;DHT22;10421;49.142;9.232;2023-04-24T09:19:37;14.00;91.80
20526;DHT22;10421;49.142;9.232;2023-04-24T09:22:05;13.90;91.10
20526;DHT22;10421;49.142;9.232;2023-04-24T09:24:34;14.10;90.40
20526;DHT22;10421;49.142;9.232;2023-04-24T09:27:01;14.30;89.10
20526;DHT22;10421;49.142;9.232;2023-04-24T09:29:28;14.40;87.00
20526;DHT22;10421;49.142;9.232;2023-04-24T09:31:55;14.50;85.30
20526;DHT22;10421;49.142;9.232;2023-04-24T09:34:22;14.50;86.20
20526;DHT22;10421;49.142;9.232;2023-04-24T09:36:50;14.40;86.00
20526;DHT22;10421;49.142;9.232;2023-04-24T09:39:18;14.40;85.70
20526;DHT22;10421;49.142;9.232;2023-04-24T09:41:48;14.40;86.20
20526;DHT22;10421;49.142;9.232;2023-04-24T09:44:16;14.40;84.90
20526;DHT22;10421;49.142;9.232;2023-04-24T09:46:44;14.30;84.30
20526;DHT22;10421;49.142;9.232;2023-04-24T09:49:13;14.40;84.30
20526;DHT22;10421;49.142;9.232;2023-04-24T09:51:42;14.50;84.30
20526;DHT22;10421;49.142;9.232;2023-04-24T09:54:14;14.60;83.90
20526;DHT22;10421;49.142;9.232;2023-04-24T09:56:43;14.70;84.60
20526;DHT22;10421;49.142;9.232;2023-04-24T09:59:12;14.80;84.40
20526;DHT22;10421;49.142;9.232;2023-04-24T10:01:38;14.80;84.00
20526;DHT22;10421;49.142;9.232;2023-04-24T10:04:15;14.90;83.60
20526;DHT22;10421;49.142;9.232;2023-04-24T10:06:43;15.00;83.30
20526;DHT22;10421;49.142;9.232;2023-04-24T10:09:09;15.10;82.60
20526;DHT22;10421;49.142;9.232;2023-04-24T10:11:37;15.20;82.10
20526;DHT22;10421;49.142;9.232;2023-04-24T10:14:07;15.30;81.30
20526;DHT22;10421;49.142;9.232;2023-04-24T10:16:37;15.30;81.50
20526;DHT22;10421;49.142;9.232;2023-04-24T10:19:04;15.30;81.90
20526;DHT22;10421;49.142;9.232;2023-04-24T10:21:32;15.20;82.30
20526;DHT22;10421;49.142;9.232;2023-04-24T10:23:59;15.10;82.50
20526;DHT22;10421;49.142;9.232;2023-04-24T10:26:29;15.00;83.10
20526;DHT22;10421;49.142;9.232;2023-04-24T10:28:57;14.80;83.40
20526;DHT22;10421;49.142;9.232;2023-04-24T10:31:25;14.80;84.20
20526;DHT22;10421;49.142;9.232;2023-04-24T10:33:54;14.70;84.10
20526;DHT22;10421;49.142;9.232;2023-04-24T10:36:22;14.70;84.40
20526;DHT22;10421;49.142;9.232;2023-04-24T10:38:52;14.60;83.90
20526;DHT22;10421;49.142;9.232;2023-04-24T10:41:21;14.60;83.90
20526;DHT22;10421;49.142;9.232;2023-04-24T10:43:48;14.50;82.70
20526;DHT22;10421;49.142;9.232;2023-04-24T10:46:30;14.40;82.60
20526;DHT22;10421;49.142;9.232;2023-04-24T10:48:58;14.40;82.60
20526;DHT22;10421;49.142;9.232;2023-04-24T10:51:45;14.50;82.20
20526;DHT22;10421;49.142;9.232;2023-04-24T10:54:22;14.40;82.10
20526;DHT22;10421;49.142;9.232;2023-04-24T10:56:50;14.50;81.70
20526;DHT22;10421;49.142;9.232;2023-04-24T10:59:24;14.60;81.80
20526;DHT22;10421;49.142;9.232;2023-04-24T11:01:53;14.80;80.00
20526;DHT22;10421;49.142;9.232;2023-04-24T11:04:31;14.80;78.60
20526;DHT22;10421;49.142;9.232;2023-04-24T11:06:58;14.80;78.80
20526;DHT22;10421;49.142;9.232;2023-04-24T11:09:26;15.00;79.30
20526;DHT22;10421;49.142;9.232;2023-04-24T11:12:03;15.10;79.60
20526;DHT22;10421;49.142;9.232;2023-04-24T11:14:59;15.10;79.50
20526;DHT22;10421;49.142;9.232;2023-04-24T11:17:30;15.10;79.00
20526;DHT22;10421;49.142;9.232;2023-04-24T11:20:02;15.00;79.30
20526;DHT22;10421;49.142;9.232;2023-04-24T11:22:33;15.00;79.80
20526;DHT22;10421;49.142;9.232;2023-04-24T11:25:00;14.80;79.40
20526;DHT22;10421;49.142;9.232;2023-04-24T11:27:30;14.80;79.20
20526;DHT22;10421;49.142;9.232;2023-04-24T11:30:01;14.80;79.40
20526;DHT22;10421;49.142;9.232;2023-04-24T11:32:29;14.80;78.50
20526;DHT22;10421;49.142;9.232;2023-04-24T11:34:58;14.70;80.10
20526;DHT22;10421;49.142;9.232;2023-04-24T11:37:29;14.60;81.30
20526;DHT22;10421;49.142;9.232;2023-04-24T11:39:59;14.40;83.60
20526;DHT22;10421;49.142;9.232;2023-04-24T11:42:26;14.40;87.00
20526;DHT22;10421;49.142;9.232;2023-04-24T11:44:54;14.40;88.50
20526;DHT22;10421;49.142;9.232;2023-04-24T11:47:28;14.40;89.50
20526;DHT22;10421;49.142;9.232;2023-04-24T11:49:55;14.50;89.50
20526;DHT22;10421;49.142;9.232;2023-04-24T11:52:21;14.60;89.50
20526;DHT22;10421;49.142;9.232;2023-04-24T11:54:50;14.70;90.30
20526;DHT22;10421;49.142;9.232;2023-04-24T11:57:20;14.90;89.90
20526;DHT22;10421;49.142;9.232;2023-04-24T11:59:47;14.90;88.60
20526;DHT22;10421;49.142;9.232;2023-04-24T12:02:23;15.00;88.30
20526;DHT22;10421;49.142;9.232;2023-04-24T12:04:51;15.10;87.60
20526;DHT22;10421;49.142;9.232;2023-04-24T12:07:18;15.20;87.60
20526;DHT22;10421;49.142;9.232;2023-04-24T12:09:46;15.30;86.00
20526;DHT22;10421;49.142;9.232;2023-04-24T12:12:17;15.30;84.60
20526;DHT22;10421;49.142;9.232;2023-04-24T12:14:53;15.30;83.20
20526;DHT22;10421;49.142;9.232;2023-04-24T12:17:25;15.20;83.10
20526;DHT22;10421;49.142;9.232;2023-04-24T12:19:52;15.00;84.50
20526;DHT22;10421;49.142;9.232;2023-04-24T12:22:19;14.70;84.60
20526;DHT22;10421;49.142;9.232;2023-04-24T12:24:59;14.70;84.70
20526;DHT22;10421;49.142;9.232;2023-04-24T12:27:29;14.60;84.40
20526;DHT22;10421;49.142;9.232;2023-04-24T12:29:56;14.60;85.00
20526;DHT22;10421;49.142;9.232;2023-04-24T12:32:24;14.70;85.70
20526;DHT22;10421;49.142;9.232;2023-04-24T12:34:52;14.80;85.30
20526;DHT22;10421;49.142;9.232;2023-04-24T12:37:18;14.80;85.90
20526;DHT22;10421;49.142;9.232;2023-04-24T12:39:58;14.90;86.10
20526;DHT22;10421;49.142;9.232;2023-04-24T12:42:27;14.90;85.90
20526;DHT22;10421;49.142;9.232;2023-04-24T12:44:57;14.90;85.80
20526;DHT22;10421;49.142;9.232;2023-04-24T12:47:25;15.00;84.90
20526;DHT22;10421;49.142;9.232;2023-04-24T12:49:52;15.10;84.30
20526;DHT22;10421;49.142;9.232;2023-04-24T12:52:18;15.10;84.60
20526;DHT22;10421;49.142;9.232;2023-04-24T12:54:46;15.00;85.20
20526;DHT22;10421;49.142;9.232;2023-04-24T12:57:13;14.90;85.20
20526;DHT22;10421;49.142;9.232;2023-04-24T12:59:41;14.90;85.50
20526;DHT22;10421;49.142;9.232;2023-04-24T13:02:08;15.00;86.50
20526;DHT22;10421;49.142;9.232;2023-04-24T13:04:35;15.20;85.80
20526;DHT22;10421;49.142;9.232;2023-04-24T13:07:02;15.30;86.70
20526;DHT22;10421;49.142;9.232;2023-04-24T13:09:29;15.50;86.60
20526;DHT22;10421;49.142;9.232;2023-04-24T13:11:56;15.50;86.90
20526;DHT22;10421;49.142;9.232;2023-04-24T13:14:23;15.40;85.40
20526;DHT22;10421;49.142;9.232;2023-04-24T13:16:51;15.40;85.60
20526;DHT22;10421;49.142;9.232;2023-04-24T13:19:18;15.50;85.00
20526;DHT22;10421;49.142;9.232;2023-04-24T13:21:45;15.60;84.60
20526;DHT22;10421;49.142;9.232;2023-04-24T13:24:11;15.70;82.10
20526;DHT22;10421;49.142;9.232;2023-04-24T13:26:38;15.80;81.50
20526;DHT22;10421;49.142;9.232;2023-04-24T13:29:05;15.70;81.40
20526;DHT22;10421;49.142;9.232;2023-04-24T13:31:31;15.80;82.00
20526;DHT22;10421;49.142;9.232;2023-04-24T13:33:59;15.80;82.50
20526;DHT22;10421;49.142;9.232;2023-04-24T13:36:26;16.00;82.80
20526;DHT22;10421;49.142;9.232;2023-04-24T13:38:53;16.10;81.80
20526;DHT22;10421;49.142;9.232;2023-04-24T13:41:20;16.10;82.40
20526;DHT22;10421;49.142;9.232;2023-04-24T13:43:46;16.10;81.40
20526;DHT22;10421;49.142;9.232;2023-04-24T13:46:13;16.00;81.90
20526;DHT22;10421;49.142;9.232;2023-04-24T13:48:40;15.80;82.20
20526;DHT22;10421;49.142;9.232;2023-04-24T13:51:08;15.80;84.00
20526;DHT22;10421;49.142;9.232;2023-04-24T13:53:35;15.90;83.10
20526;DHT22;10421;49.142;9.232;2023-04-24T13:56:04;15.90;83.00
20526;DHT22;10421;49.142;9.232;2023-04-24T13:58:31;16.00;81.80
20526;DHT22;10421;49.142;9.232;2023-04-24T14:00:57;16.10;81.70
20526;DHT22;10421;49.142;9.232;2023-04-24T14:03:24;16.20;80.80
20526;DHT22;10421;49.142;9.232;2023-04-24T14:05:54;16.10;78.70
20526;DHT22;10421;49.142;9.232;2023-04-24T14:08:24;16.00;78.60
20526;DHT22;10421;49.142;9.232;2023-04-24T14:10:51;15.90;79.30
20526;DHT22;10421;49.142;9.232;2023-04-24T14:13:18;15.90;79.20
20526;DHT22;10421;49.142;9.232;2023-04-24T14:15:45;15.80;79.70
20526;DHT22;10421;49.142;9.232;2023-04-24T14:18:12;15.90;79.10
20526;DHT22;10421;49.142;9.232;2023-04-24T14:20:39;15.90;78.50
20526;DHT22;10421;49.142;9.232;2023-04-24T14:23:05;15.90;78.10
20526;DHT22;10421;49.142;9.232;2023-04-24T14:25:34;15.90;78.10
20526;DHT22;10421;49.142;9.232;2023-04-24T14:28:00;15.90;77.80
20526;DHT22;10421;49.142;9.232;2023-04-24T14:30:27;15.90;78.10
20526;DHT22;10421;49.142;9.232;2023-04-24T14:32:54;15.90;78.40
20526;DHT22;10421;49.142;9.232;2023-04-24T14:35:21;16.00;78.30
20526;DHT22;10421;49.142;9.232;2023-04-24T14:37:48;15.90;77.40
20526;DHT22;10421;49.142;9.232;2023-04-24T14:40:15;15.80;76.80
20526;DHT22;10421;49.142;9.232;2023-04-24T14:42:43;15.80;76.90
20526;DHT22;10421;49.142;9.232;2023-04-24T14:45:11;15.70;77.50
20526;DHT22;10421;49.142;9.232;2023-04-24T14:47:37;15.60;78.30
20526;DHT22;10421;49.142;9.232;2023-04-24T14:50:05;15.70;78.60
20526;DHT22;10421;49.142;9.232;2023-04-24T14:52:33;15.40;78.90
20526;DHT22;10421;49.142;9.232;2023-04-24T14:55:00;15.40;79.60
20526;DHT22;10421;49.142;9.232;2023-04-24T14:57:27;15.50;79.10
20526;DHT22;10421;49.142;9.232;2023-04-24T14:59:55;15.40;78.30
20526;DHT22;10421;49.142;9.232;2023-04-24T15:02:21;15.50;78.60
20526;DHT22;10421;49.142;9.232;2023-04-24T15:04:48;15.50;77.90
20526;DHT22;10421;49.142;9.232;2023-04-24T15:07:15;15.60;78.70
20526;DHT22;10421;49.142;9.232;2023-04-24T15:09:42;15.60;78.50
20526;DHT22;10421;49.142;9.232;2023-04-24T15:12:09;15.60;79.10
20526;DHT22;10421;49.142;9.232;2023-04-24T15:14:37;15.80;78.60
20526;DHT22;10421;49.142;9.232;2023-04-24T15:17:05;15.80;78.60
20526;DHT22;10421;49.142;9.232;2023-04-24T15:19:32;15.80;78.80
20526;DHT22;10421;49.142;9.232;2023-04-24T15:21:59;15.90;78.70
20526;DHT22;10421;49.142;9.232;2023-04-24T15:24:26;15.80;79.90
20526;DHT22;10421;49.142;9.232;2023-04-24T15:26:53;15.80;80.10
20526;DHT22;10421;49.142;9.232;2023-04-24T15:29:20;15.80;79.80
20526;DHT22;10421;49.142;9.232;2023-04-24T15:31:47;15.80;80.10
20526;DHT22;10421;49.142;9.232;2023-04-24T15:34:15;15.70;80.00